Time;durP1;ratioP1;P1;durP2;ratioP2;P2;SDS_P1;SDS_P2;PMS_P1;PMS_P2;Temp;Humidity;BMP_temperature;BMP_pressure;BME280_temperature;BME280_humidity;BME280_pressure;Samples;Min_cycle;Max_cycle;Signal;HPM_P1;HPM_P2
2021/03/04 00:00:11;;;;;;;87.40;50.53;;;179.60;1561.60;;;;;;5094767;28;20087;-82
2021/03/04 00:02:37;;;;;;;101.50;57.38;;;179.60;1536.00;;;;;;5094777;28;20027;-82
2021/03/04 00:05:08;;;;;;;104.40;57.65;;;179.60;1561.60;;;;;;5094676;28;20040;-69
2021/03/04 00:07:37;;;;;;;100.85;55.70;;;179.60;1561.60;;;;;;5094714;28;20468;-70
2021/03/04 00:10:06;;;;;;;93.57;53.35;;;179.70;1561.60;;;;;;5091684;28;20039;-82
2021/03/04 00:12:32;;;;;;;95.32;50.60;;;179.60;1561.60;;;;;;5093600;28;20437;-70
2021/03/04 00:14:58;;;;;;;94.38;51.00;;;179.60;1561.60;;;;;;5089644;28;20020;-81
2021/03/04 00:17:24;;;;;;;101.72;55.65;;;179.60;1561.60;;;;;;5091205;28;20080;-70
2021/03/04 00:19:49;;;;;;;90.90;50.08;;;179.50;1561.60;;;;;;5094639;28;20096;-82
2021/03/04 00:22:15;;;;;;;89.88;52.53;;;179.50;1561.60;;;;;;5094336;28;20036;-70
2021/03/04 00:24:41;;;;;;;100.35;54.75;;;179.40;1587.20;;;;;;5094304;28;20103;-83
2021/03/04 00:27:07;;;;;;;100.90;56.95;;;179.40;1587.20;;;;;;5093996;28;20051;-81
2021/03/04 00:29:33;;;;;;;101.30;56.03;;;179.30;1561.60;;;;;;5094087;28;20032;-83
2021/03/04 00:31:59;;;;;;;102.53;57.75;;;179.30;1587.20;;;;;;5094214;28;20091;-70
2021/03/04 00:34:25;;;;;;;109.60;58.55;;;179.30;1561.60;;;;;;5093964;28;20036;-82
2021/03/04 00:36:51;;;;;;;99.28;57.25;;;179.30;1561.60;;;;;;5093871;28;20045;-70
2021/03/04 00:39:17;;;;;;;105.47;57.65;;;179.20;1587.20;;;;;;5090205;28;20016;-74
2021/03/04 00:41:42;;;;;;;96.72;54.75;;;179.30;1561.60;;;;;;5091413;28;20042;-74
2021/03/04 00:44:09;;;;;;;93.65;53.58;;;179.20;1587.20;;;;;;5091116;28;20030;-82
2021/03/04 00:46:35;;;;;;;100.63;55.13;;;179.20;1587.20;;;;;;5094137;28;20020;-82
2021/03/04 00:49:01;;;;;;;91.30;51.72;;;179.20;1587.20;;;;;;5093930;28;20039;-82
2021/03/04 00:51:28;;;;;;;96.88;51.33;;;154.50;1561.60;;;;;;5090880;28;20116;-70
2021/03/04 00:53:53;;;;;;;90.88;53.63;;;154.50;1587.20;;;;;;5085938;28;20033;-70
2021/03/04 00:56:19;;;;;;;97.22;55.03;;;154.40;1587.20;;;;;;5084437;28;20030;-81
2021/03/04 00:58:45;;;;;;;99.60;52.80;;;154.20;1587.20;;;;;;5073467;28;20390;-70
2021/03/04 01:01:11;;;;;;;95.50;53.88;;;154.20;1587.20;;;;;;5073770;28;20040;-71
2021/03/04 01:03:37;;;;;;;88.47;49.40;;;154.10;1587.20;;;;;;5073771;28;20024;-82
2021/03/04 01:06:04;;;;;;;91.53;50.15;;;154.10;1587.20;;;;;;5073828;28;20081;-71
2021/03/04 01:08:30;;;;;;;84.28;48.75;;;154.00;1587.20;;;;;;5072391;28;20419;-70
2021/03/04 01:10:56;;;;;;;86.72;50.72;;;154.00;1612.80;;;;;;5073657;28;20036;-70
2021/03/04 01:13:23;;;;;;;86.05;48.83;;;154.00;1587.20;;;;;;5073757;28;20024;-70
2021/03/04 01:15:49;;;;;;;92.55;49.45;;;153.90;1587.20;;;;;;5073931;28;20025;-69
2021/03/04 01:18:15;;;;;;;84.75;48.92;;;153.90;1612.80;;;;;;5073643;28;20027;-69
2021/03/04 01:20:41;;;;;;;87.47;49.70;;;153.90;1612.80;;;;;;5073739;28;20020;-69
2021/03/04 01:23:07;;;;;;;83.95;47.80;;;153.90;1612.80;;;;;;5073437;28;20488;-70
2021/03/04 01:25:33;;;;;;;77.38;46.38;;;153.90;1612.80;;;;;;5073533;28;20032;-70
2021/03/04 01:27:59;;;;;;;84.63;48.20;;;153.90;1612.80;;;;;;5076559;28;20032;-70
2021/03/04 01:30:31;;;;;;;83.65;47.45;;;153.90;1612.80;;;;;;5077699;28;20028;-70
2021/03/04 01:32:57;;;;;;;84.50;49.97;;;153.90;1612.80;;;;;;5078178;28;20028;-69
2021/03/04 01:35:23;;;;;;;92.03;50.80;;;153.90;1587.20;;;;;;5076420;28;20041;-73
2021/03/04 01:37:49;;;;;;;83.82;49.83;;;153.90;1612.80;;;;;;5077582;28;20056;-70
2021/03/04 01:40:17;;;;;;;88.88;49.63;;;153.80;1612.80;;;;;;5077375;28;20070;-81
2021/03/04 01:42:44;;;;;;;84.03;47.60;;;153.80;1638.40;;;;;;5077478;28;20025;-70
2021/03/04 01:45:11;;;;;;;83.32;47.53;;;153.80;1612.80;;;;;;5077454;28;20103;-70
2021/03/04 01:47:38;;;;;;;89.07;48.92;;;153.80;1612.80;;;;;;5077414;28;20031;-70
2021/03/04 01:50:06;;;;;;;85.20;49.40;;;153.80;1587.20;;;;;;5077162;28;20119;-70
2021/03/04 01:52:32;;;;;;;94.85;54.65;;;153.90;1587.20;;;;;;5077306;28;20059;-70
2021/03/04 01:54:59;;;;;;;91.53;54.17;;;153.80;1587.20;;;;;;5077359;28;20493;-70
2021/03/04 01:57:28;;;;;;;91.22;52.00;;;153.80;1587.20;;;;;;5077049;28;20029;-70
2021/03/04 01:59:58;;;;;;;93.43;52.47;;;153.80;1638.40;;;;;;5076880;28;20024;-70
2021/03/04 02:02:25;;;;;;;95.68;53.75;;;153.80;1587.20;;;;;;5077053;28;20025;-81
2021/03/04 02:04:53;;;;;;;93.43;52.55;;;153.80;1612.80;;;;;;5076976;28;20044;-70
2021/03/04 02:07:56;;;;;;;97.80;53.05;;;153.60;1587.20;;;;;;5076956;28;20422;-81
2021/03/04 02:10:47;;;;;;;93.00;51.38;;;128.80;1638.40;;;;;;5076762;28;20056;-83
2021/03/04 02:13:35;;;;;;;95.93;53.40;;;128.90;1664.00;;;;;;5075793;28;20028;-76
2021/03/04 02:16:04;;;;;;;92.93;51.85;;;128.80;1689.60;;;;;;5076689;28;20028;-82
2021/03/04 02:18:33;;;;;;;92.50;52.72;;;128.70;1664.00;;;;;;5076772;28;20111;-81
2021/03/04 02:21:05;;;;;;;98.28;54.15;;;128.80;1638.40;;;;;;5076703;28;20027;-69
2021/03/04 02:23:49;;;;;;;90.38;51.90;;;128.80;1638.40;;;;;;5076825;28;20025;-70
2021/03/04 02:26:37;;;;;;;91.32;53.65;;;128.70;1638.40;;;;;;5076462;28;20029;-82
2021/03/04 02:29:04;;;;;;;102.45;53.40;;;128.80;1612.80;;;;;;5075408;28;20476;-69
2021/03/04 02:31:34;;;;;;;95.45;52.85;;;128.80;1638.40;;;;;;5076519;28;20074;-82
2021/03/04 02:34:03;;;;;;;92.78;54.63;;;128.80;1638.40;;;;;;5076685;28;20021;-77
2021/03/04 02:36:34;;;;;;;94.00;52.03;;;128.70;1612.80;;;;;;5076399;28;20081;-70
2021/03/04 02:39:03;;;;;;;96.18;54.10;;;128.80;1587.20;;;;;;5075651;28;20447;-69
2021/03/04 02:41:36;;;;;;;96.10;52.42;;;128.60;1638.40;;;;;;5076308;28;20070;-70
2021/03/04 02:44:04;;;;;;;85.30;48.38;;;128.60;1638.40;;;;;;5076608;28;20067;-69
2021/03/04 02:46:33;;;;;;;82.95;49.60;;;128.70;1638.40;;;;;;5076111;28;20592;-81
2021/03/04 02:49:00;;;;;;;88.53;50.35;;;128.70;1664.00;;;;;;5076196;28;20064;-82
2021/03/04 02:51:28;;;;;;;91.13;50.03;;;128.70;1612.80;;;;;;5076098;28;20024;-69
2021/03/04 02:53:55;;;;;;;88.40;50.05;;;128.70;1664.00;;;;;;5076052;28;20108;-69
2021/03/04 02:56:24;;;;;;;87.93;50.20;;;128.80;1638.40;;;;;;5076081;28;20078;-81
2021/03/04 02:58:52;;;;;;;94.43;52.88;;;128.60;1664.00;;;;;;5076079;28;20072;-70
2021/03/04 03:01:24;;;;;;;91.75;51.35;;;128.60;1638.40;;;;;;5075941;28;20028;-81
2021/03/04 03:03:53;;;;;;;93.80;51.45;;;128.60;1638.40;;;;;;5074749;28;20385;-69
2021/03/04 03:06:21;;;;;;;91.75;51.88;;;128.60;1638.40;;;;;;5075760;28;20029;-71
2021/03/04 03:08:48;;;;;;;98.47;52.42;;;128.60;1715.20;;;;;;5075592;28;20119;-70
2021/03/04 03:11:18;;;;;;;91.68;52.05;;;128.50;1689.60;;;;;;5075605;28;20389;-69
2021/03/04 03:13:48;;;;;;;111.60;56.88;;;128.40;1664.00;;;;;;5075968;28;20021;-69
2021/03/04 03:16:14;;;;;;;95.43;54.97;;;128.50;1664.00;;;;;;5075884;28;20078;-70
2021/03/04 03:18:40;;;;;;;92.45;52.83;;;128.60;1638.40;;;;;;5075996;28;20465;-70
2021/03/04 03:21:06;;;;;;;96.40;54.95;;;128.60;1612.80;;;;;;5075543;28;20384;-69
2021/03/04 03:23:32;;;;;;;97.00;53.45;;;128.70;1612.80;;;;;;5075728;28;20029;-81
2021/03/04 03:25:58;;;;;;;121.72;60.45;;;128.70;1689.60;;;;;;5075415;28;20036;-69
2021/03/04 03:28:24;;;;;;;119.53;61.72;;;128.50;1689.60;;;;;;5075269;28;20350;-70
2021/03/04 03:30:50;;;;;;;118.55;60.17;;;128.60;1689.60;;;;;;5075160;28;20033;-70
2021/03/04 03:33:18;;;;;;;113.25;61.15;;;128.50;1612.80;;;;;;5075193;28;20024;-81
2021/03/04 03:35:45;;;;;;;116.57;60.83;;;128.60;1638.40;;;;;;5075126;28;20078;-70
2021/03/04 03:38:12;;;;;;;114.05;63.38;;;128.60;1638.40;;;;;;5073887;28;20031;-69
2021/03/04 03:40:39;;;;;;;111.55;59.72;;;128.60;1638.40;;;;;;5075187;28;20024;-82
2021/03/04 03:43:10;;;;;;;121.13;60.63;;;128.60;1689.60;;;;;;5075101;28;20029;-69
2021/03/04 03:45:42;;;;;;;116.10;63.65;;;128.40;1664.00;;;;;;5075016;28;20031;-82
2021/03/04 03:48:17;;;;;;;124.25;64.95;;;128.50;1638.40;;;;;;5075063;28;20473;-69
2021/03/04 03:50:44;;;;;;;117.90;65.32;;;128.50;1664.00;;;;;;5074594;28;20033;-69
2021/03/04 03:53:14;;;;;;;116.68;64.72;;;128.50;1689.60;;;;;;5074964;28;20082;-69
2021/03/04 03:55:52;;;;;;;123.78;68.35;;;128.40;1689.60;;;;;;5074863;28;20028;-82
2021/03/04 03:58:23;;;;;;;130.52;69.60;;;128.50;1689.60;;;;;;5074689;28;20040;-69
2021/03/04 04:00:53;;;;;;;129.27;70.72;;;128.50;1664.00;;;;;;5074785;28;20025;-69
2021/03/04 04:03:19;;;;;;;133.55;72.00;;;128.40;1715.20;;;;;;5074707;28;20020;-81
2021/03/04 04:05:45;;;;;;;113.68;65.00;;;128.40;1740.80;;;;;;5074766;28;20029;-70
2021/03/04 04:08:12;;;;;;;118.97;65.85;;;128.40;1715.20;;;;;;5074776;28;20026;-69
2021/03/04 04:10:38;;;;;;;129.30;68.50;;;128.40;1715.20;;;;;;5074695;28;20032;-81
2021/03/04 04:13:04;;;;;;;132.80;68.30;;;128.30;1740.80;;;;;;5074421;28;20020;-79
2021/03/04 04:15:30;;;;;;;124.97;67.53;;;128.40;1740.80;;;;;;5074502;28;20373;-69
2021/03/04 04:17:59;;;;;;;120.38;67.15;;;128.40;1664.00;;;;;;5074727;28;20021;-82
2021/03/04 04:20:26;;;;;;;108.22;63.03;;;128.50;1740.80;;;;;;5073176;28;20392;-70
2021/03/04 04:22:53;;;;;;;115.28;64.93;;;128.40;1740.80;;;;;;5074573;28;20028;-82
2021/03/04 04:25:21;;;;;;;114.97;63.00;;;128.40;1689.60;;;;;;5074141;28;20024;-82
2021/03/04 04:27:52;;;;;;;110.38;61.50;;;128.40;1689.60;;;;;;5072928;28;20388;-69
2021/03/04 04:30:19;;;;;;;114.18;62.33;;;128.40;1766.40;;;;;;5074132;28;20043;-69
2021/03/04 04:32:46;;;;;;;111.28;62.45;;;128.40;1715.20;;;;;;5074124;28;20044;-70
2021/03/04 04:35:13;;;;;;;117.68;61.50;;;128.40;1715.20;;;;;;5074217;28;20021;-69
2021/03/04 04:37:40;;;;;;;115.70;65.53;;;128.30;1766.40;;;;;;5074379;28;20115;-82
2021/03/04 04:40:07;;;;;;;113.07;61.58;;;128.30;1792.00;;;;;;5076837;28;20561;-79
2021/03/04 04:42:34;;;;;;;133.20;64.70;;;128.30;1715.20;;;;;;5082768;28;20037;-73
2021/03/04 04:45:01;;;;;;;135.10;70.55;;;128.40;1664.00;;;;;;5073894;28;20024;-69
2021/03/04 04:47:26;;;;;;;130.90;67.63;;;128.40;1766.40;;;;;;5074002;28;20126;-82
2021/03/04 04:49:52;;;;;;;143.30;76.15;;;128.30;1766.40;;;;;;5072678;28;20119;-69
2021/03/04 04:52:19;;;;;;;141.90;72.85;;;128.30;1766.40;;;;;;5074023;28;20027;-70
2021/03/04 04:54:46;;;;;;;128.73;70.32;;;128.40;1689.60;;;;;;5073760;28;20508;-69
2021/03/04 04:57:12;;;;;;;124.80;67.43;;;128.40;1740.80;;;;;;5073592;28;20027;-82
2021/03/04 04:59:38;;;;;;;128.55;68.45;;;128.40;1766.40;;;;;;5073835;28;20036;-69
2021/03/04 05:02:04;;;;;;;126.70;69.88;;;128.30;1843.20;;;;;;5073093;28;20043;-69
2021/03/04 05:04:30;;;;;;;124.07;68.88;;;128.50;1740.80;;;;;;5073787;28;20035;-82
2021/03/04 05:06:56;;;;;;;122.13;70.90;;;128.40;1817.60;;;;;;5073555;28;20013;-82
2021/03/04 05:09:22;;;;;;;124.93;72.65;;;128.40;1817.60;;;;;;5073544;28;20028;-81
2021/03/04 05:11:48;;;;;;;120.63;71.88;;;128.50;1843.20;;;;;;5073862;28;20025;-70
2021/03/04 05:14:14;;;;;;;126.22;72.40;;;128.50;1766.40;;;;;;5077875;28;20020;-69
2021/03/04 05:16:40;;;;;;;139.73;77.15;;;128.60;1792.00;;;;;;5084908;28;20132;-81
2021/03/04 05:19:06;;;;;;;137.50;77.15;;;128.60;1715.20;;;;;;5093845;28;20029;-82
2021/03/04 05:21:33;;;;;;;135.40;75.57;;;128.60;1766.40;;;;;;5093780;28;20078;-69
2021/03/04 05:23:59;;;;;;;144.75;84.28;;;128.60;1740.80;;;;;;5093719;28;20027;-70
2021/03/04 05:26:25;;;;;;;145.48;79.03;;;128.60;1817.60;;;;;;5093632;28;20469;-69
2021/03/04 05:28:50;;;;;;;135.93;78.38;;;128.60;1792.00;;;;;;5093912;28;20031;-70
2021/03/04 05:31:16;;;;;;;133.50;74.50;;;128.60;1792.00;;;;;;5093941;28;20130;-82
2021/03/04 05:33:42;;;;;;;145.25;81.07;;;128.70;1740.80;;;;;;5093617;28;20047;-82
2021/03/04 05:36:08;;;;;;;153.48;81.45;;;128.70;1715.20;;;;;;5093575;28;20469;-69
2021/03/04 05:38:34;;;;;;;146.15;80.20;;;128.80;1715.20;;;;;;5093604;28;20053;-69
2021/03/04 05:41:00;;;;;;;166.18;83.55;;;128.80;1715.20;;;;;;5094110;28;20024;-69
2021/03/04 05:43:26;;;;;;;171.75;84.55;;;128.90;1766.40;;;;;;5093518;28;20028;-69
2021/03/04 05:45:53;;;;;;;164.32;84.85;;;128.80;1740.80;;;;;;5093597;28;20103;-69
2021/03/04 05:48:22;;;;;;;167.70;86.60;;;128.80;1740.80;;;;;;5093627;28;20017;-81
2021/03/04 05:50:50;;;;;;;149.55;81.40;;;128.70;1817.60;;;;;;5093490;28;20036;-69
2021/03/04 05:53:20;;;;;;;140.18;76.50;;;128.80;1766.40;;;;;;5093400;28;20017;-69
2021/03/04 05:55:46;;;;;;;131.05;74.32;;;128.80;1766.40;;;;;;5093643;28;20444;-70
2021/03/04 05:58:13;;;;;;;125.60;70.63;;;128.70;1792.00;;;;;;5093102;28;20087;-71
2021/03/04 06:00:42;;;;;;;138.00;75.53;;;128.60;1792.00;;;;;;5093320;28;20485;-82
2021/03/04 06:03:09;;;;;;;132.90;76.50;;;128.60;1792.00;;;;;;5094480;28;20055;-82
2021/03/04 06:05:36;;;;;;;126.40;70.53;;;128.50;1792.00;;;;;;5093501;28;20028;-69
2021/03/04 06:08:06;;;;;;;123.28;68.53;;;128.50;1817.60;;;;;;5087913;28;20052;-83
2021/03/04 06:10:33;;;;;;;129.55;69.10;;;128.40;1817.60;;;;;;5082479;28;20028;-69
2021/03/04 06:13:00;;;;;;;126.47;64.10;;;128.40;1817.60;;;;;;5094328;28;20081;-69
2021/03/04 06:15:27;;;;;;;126.45;69.55;;;128.50;1817.60;;;;;;5097364;28;20407;-81
2021/03/04 06:17:54;;;;;;;123.07;69.43;;;128.60;1766.40;;;;;;5088754;28;20157;-69
2021/03/04 06:20:40;;;;;;;116.38;62.72;;;128.70;1843.20;;;;;;5077829;28;20162;-70
2021/03/04 06:23:06;;;;;;;102.97;58.92;;;128.60;1843.20;;;;;;5076585;28;20025;-69
2021/03/04 06:25:32;;;;;;;107.53;59.10;;;128.70;1817.60;;;;;;5076746;28;20012;-81
2021/03/04 06:27:59;;;;;;;108.97;56.95;;;128.80;1792.00;;;;;;5086377;28;20016;-70
2021/03/04 06:30:32;;;;;;;93.45;55.30;;;128.90;1792.00;;;;;;5093344;28;20382;-69
2021/03/04 06:33:06;;;;;;;104.40;56.53;;;128.90;1817.60;;;;;;5094752;28;20039;-70
2021/03/04 06:35:46;;;;;;;105.18;60.30;;;153.60;1792.00;;;;;;5093822;28;20024;-82
2021/03/04 06:38:13;;;;;;;106.10;60.00;;;153.60;1792.00;;;;;;5092202;28;20023;-70
2021/03/04 06:40:40;;;;;;;108.68;60.15;;;153.70;1817.60;;;;;;5096281;28;20099;-82
2021/03/04 06:43:06;;;;;;;107.63;61.20;;;153.60;1792.00;;;;;;5095086;28;20600;-81
2021/03/04 06:45:35;;;;;;;107.38;62.15;;;153.70;1817.60;;;;;;5093521;28;20020;-83
2021/03/04 06:48:09;;;;;;;104.22;60.92;;;153.80;1766.40;;;;;;5093457;28;20557;-81
2021/03/04 06:50:36;;;;;;;104.25;61.10;;;153.90;1766.40;;;;;;5092690;28;20059;-79
2021/03/04 06:53:15;;;;;;;108.10;61.10;;;154.10;1792.00;;;;;;5094053;28;20465;-81
2021/03/04 06:56:04;;;;;;;97.32;57.88;;;154.20;1766.40;;;;;;5092335;28;20017;-80
2021/03/04 06:58:31;;;;;;;100.05;58.05;;;154.30;1766.40;;;;;;5094375;28;20040;-81
2021/03/04 07:01:19;;;;;;;97.15;58.17;;;154.30;1740.80;;;;;;5092295;28;20016;-75
2021/03/04 07:03:50;;;;;;;98.25;58.38;;;154.40;1740.80;;;;;;5084663;28;20131;-69
2021/03/04 07:06:17;;;;;;;106.60;57.80;;;154.30;1792.00;;;;;;5075595;28;20116;-69
2021/03/04 07:08:46;;;;;;;245.23;70.05;;;154.30;1766.40;;;;;;5075585;28;20029;-69
2021/03/04 07:11:14;;;;;;;100.78;58.20;;;154.40;1740.80;;;;;;5075384;28;20028;-69
2021/03/04 07:13:41;;;;;;;108.60;58.55;;;154.40;1766.40;;;;;;5075576;28;20024;-69
2021/03/04 07:16:32;;;;;;;104.82;57.58;;;154.50;1766.40;;;;;;5091085;28;20029;-69
2021/03/04 07:19:00;;;;;;;103.90;57.80;;;179.20;1740.80;;;;;;5075453;28;20021;-69
2021/03/04 07:21:28;;;;;;;105.70;58.85;;;179.40;1766.40;;;;;;5086508;28;20541;-69
2021/03/04 07:23:54;;;;;;;99.28;58.42;;;179.70;1740.80;;;;;;5093048;28;20059;-69
2021/03/04 07:26:21;;;;;;;97.63;55.63;;;179.90;1689.60;;;;;;5093500;28;20024;-77
2021/03/04 07:28:48;;;;;;;92.20;54.03;;;179.90;1715.20;;;;;;5091122;28;20039;-70
2021/03/04 07:31:15;;;;;;;101.82;57.83;;;179.90;1715.20;;;;;;5075456;28;20033;-79
2021/03/04 07:33:46;;;;;;;100.60;57.28;;;179.90;1715.20;;;;;;5086001;28;20039;-69
2021/03/04 07:36:14;;;;;;;94.28;56.90;;;179.90;1740.80;;;;;;5089157;28;20372;-69
2021/03/04 07:38:41;;;;;;;103.60;58.00;;;180.10;1740.80;;;;;;5093782;28;20068;-69
2021/03/04 07:41:09;;;;;;;97.93;58.95;;;180.10;1715.20;;;;;;5093892;28;20031;-69
2021/03/04 07:43:55;;;;;;;107.95;57.45;;;180.10;1740.80;;;;;;5094285;28;20371;-69
2021/03/04 07:46:31;;;;;;;420.95;90.32;;;204.80;1740.80;;;;;;5094786;28;20476;-69
2021/03/04 07:48:58;;;;;;;88.57;51.20;;;204.90;1715.20;;;;;;5084422;28;20020;-69
2021/03/04 07:51:26;;;;;;;83.28;47.55;;;205.00;1689.60;;;;;;5074641;28;20032;-70
2021/03/04 07:53:54;;;;;;;79.95;47.80;;;205.00;1715.20;;;;;;5090784;28;20013;-79
2021/03/04 07:56:32;;;;;;;85.63;48.33;;;205.10;1715.20;;;;;;5094783;28;20081;-69
2021/03/04 07:59:15;;;;;;;89.10;52.17;;;205.20;1715.20;;;;;;5094354;28;20055;-76
2021/03/04 08:01:42;;;;;;;84.38;50.17;;;205.30;1689.60;;;;;;5094441;28;20012;-80
2021/03/04 08:04:25;;;;;;;89.93;53.72;;;205.40;1689.60;;;;;;5094686;28;20480;-69
2021/03/04 08:06:55;;;;;;;106.68;51.53;;;205.50;1689.60;;;;;;5090836;28;20021;-80
2021/03/04 08:09:32;;;;;;;95.20;55.92;;;205.60;1715.20;;;;;;5084652;28;20032;-70
2021/03/04 08:12:15;;;;;;;134.95;74.10;;;205.70;1689.60;;;;;;5077260;28;20052;-70
2021/03/04 08:14:57;;;;;;;109.95;62.67;;;230.40;1715.20;;;;;;5084175;28;20046;-75
2021/03/04 08:17:36;;;;;;;97.60;54.97;;;230.70;1638.40;;;;;;5083477;28;20358;-69
2021/03/04 08:20:28;;;;;;;104.30;50.45;;;231.00;1638.40;;;;;;5081195;28;20105;-80
2021/03/04 08:22:56;;;;;;;83.10;44.63;;;256.10;1587.20;;;;;;5069432;28;20059;-69
2021/03/04 08:25:28;;;;;;;75.72;44.05;;;256.40;1561.60;;;;;;5072373;28;20029;-70
2021/03/04 08:27:55;;;;;;;67.97;43.38;;;256.60;1510.40;;;;;;5073760;28;20029;-70
2021/03/04 08:30:38;;;;;;;71.65;40.67;;;256.70;1510.40;;;;;;5073866;28;20040;-69
2021/03/04 08:33:10;;;;;;;69.05;41.97;;;256.90;1484.80;;;;;;5085497;28;20104;-69
2021/03/04 08:35:38;;;;;;;58.80;37.65;;;281.70;1536.00;;;;;;5089924;28;20024;-70
2021/03/04 08:38:06;;;;;;;57.92;36.70;;;281.80;1536.00;;;;;;5089690;28;20031;-69
2021/03/04 08:40:47;;;;;;;64.38;37.60;;;282.10;1536.00;;;;;;5093213;28;20364;-70
2021/03/04 08:43:20;;;;;;;62.80;36.40;;;282.10;1510.40;;;;;;5082961;28;20028;-69
2021/03/04 08:45:54;;;;;;;52.50;34.63;;;282.20;1510.40;;;;;;5081857;28;20104;-70
2021/03/04 08:48:20;;;;;;;56.55;35.90;;;282.30;1510.40;;;;;;5073858;28;20472;-80
2021/03/04 08:50:48;;;;;;;85.10;41.45;;;282.30;1510.40;;;;;;5074813;28;20078;-69
2021/03/04 08:53:16;;;;;;;59.60;35.75;;;282.30;1510.40;;;;;;5093778;28;20024;-69
2021/03/04 11:14:45;;;;;;;12.95;9.90;;;384.10;972.80;;;;;;5071072;28;20392;-74
2021/03/04 11:17:11;;;;;;;17.70;10.50;;;384.20;1024.00;;;;;;5070902;28;20021;-68
2021/03/04 11:19:37;;;;;;;19.70;10.50;;;384.40;972.80;;;;;;5070762;28;20025;-73
2021/03/04 11:22:04;;;;;;;17.08;9.40;;;384.60;921.60;;;;;;5070775;28;20029;-68
2021/03/04 11:24:30;;;;;;;16.70;10.30;;;384.80;921.60;;;;;;5070639;28;20028;-69
2021/03/04 11:26:56;;;;;;;21.33;9.65;;;384.90;921.60;;;;;;5071403;28;20024;-68
2021/03/04 11:29:22;;;;;;;19.17;11.18;;;409.70;870.40;;;;;;5070534;28;20033;-68
2021/03/04 11:31:48;;;;;;;18.73;10.45;;;409.90;896.00;;;;;;5070300;28;20029;-68
2021/03/04 11:34:14;;;;;;;17.40;9.05;;;410.00;896.00;;;;;;5070268;28;20033;-68
2021/03/04 11:36:39;;;;;;;16.77;9.45;;;410.00;870.40;;;;;;5070576;28;20104;-69
2021/03/04 11:39:06;;;;;;;37.80;10.38;;;410.10;870.40;;;;;;5070248;28;20390;-68
2021/03/04 11:41:32;;;;;;;55.88;22.38;;;410.30;870.40;;;;;;5065268;28;20074;-68
2021/03/04 11:43:58;;;;;;;36.80;12.60;;;410.40;844.80;;;;;;5065117;28;20078;-68
2021/03/04 11:46:24;;;;;;;17.17;9.80;;;410.50;844.80;;;;;;5065930;28;20095;-72
2021/03/04 11:48:51;;;;;;;19.85;9.43;;;435.20;870.40;;;;;;5065600;28;20057;-68
2021/03/04 11:51:18;;;;;;;16.05;9.00;;;435.20;870.40;;;;;;5068753;28;20034;-69
2021/03/04 11:53:44;;;;;;;15.38;8.85;;;435.40;819.20;;;;;;5069339;28;20037;-68
2021/03/04 11:56:10;;;;;;;14.55;7.78;;;435.20;844.80;;;;;;5069879;28;20029;-68
2021/03/04 11:58:37;;;;;;;15.75;8.57;;;435.20;870.40;;;;;;5069813;28;20039;-68
2021/03/04 12:01:03;;;;;;;12.48;8.43;;;435.20;793.60;;;;;;5070564;28;20020;-67
2021/03/04 12:03:29;;;;;;;18.80;9.25;;;435.20;819.20;;;;;;5069764;28;20053;-68
2021/03/04 12:05:55;;;;;;;23.25;9.80;;;435.30;793.60;;;;;;5069671;28;20029;-68
2021/03/04 12:08:21;;;;;;;14.80;7.85;;;435.40;819.20;;;;;;5069960;28;20039;-73
2021/03/04 12:10:47;;;;;;;17.70;7.38;;;435.40;768.00;;;;;;5069871;28;20043;-68
2021/03/04 12:13:13;;;;;;;17.23;9.85;;;435.50;819.20;;;;;;5067989;28;20140;-68
2021/03/04 12:15:41;;;;;;;22.50;13.13;;;435.60;742.40;;;;;;5069497;28;20043;-68
2021/03/04 12:18:07;;;;;;;31.23;20.20;;;435.50;742.40;;;;;;5069616;28;20108;-68
2021/03/04 12:20:34;;;;;;;30.25;23.42;;;435.60;768.00;;;;;;5069676;28;20517;-69
2021/03/04 12:23:00;;;;;;;15.02;9.82;;;435.60;768.00;;;;;;5069296;28;20023;-69
2021/03/04 12:25:26;;;;;;;18.65;9.75;;;435.60;716.80;;;;;;5060282;28;20029;-69
2021/03/04 12:27:53;;;;;;;26.10;11.60;;;435.50;742.40;;;;;;5054794;28;20386;-69
2021/03/04 12:30:20;;;;;;;33.63;10.18;;;435.50;768.00;;;;;;5056342;28;20423;-69
2021/03/04 12:32:46;;;;;;;13.45;8.52;;;435.50;691.20;;;;;;5055961;28;20090;-69
2021/03/04 12:35:14;;;;;;;22.65;11.93;;;435.40;742.40;;;;;;5056326;28;20029;-69
2021/03/04 12:37:41;;;;;;;13.73;7.40;;;435.50;793.60;;;;;;5056034;28;20131;-69
2021/03/04 12:40:08;;;;;;;8.65;6.32;;;435.50;768.00;;;;;;5056242;28;20021;-70
2021/03/04 12:42:34;;;;;;;29.17;17.17;;;435.40;768.00;;;;;;5055932;28;20424;-69
2021/03/04 12:45:00;;;;;;;17.80;10.23;;;435.50;742.40;;;;;;5055829;28;20083;-69
2021/03/04 12:47:26;;;;;;;20.40;11.13;;;435.50;716.80;;;;;;5055845;28;20040;-69
2021/03/04 12:49:52;;;;;;;22.27;12.10;;;435.50;742.40;;;;;;5055744;28;20100;-69
2021/03/04 12:52:20;;;;;;;7.95;6.05;;;435.60;716.80;;;;;;5050918;28;20061;-69
2021/03/04 12:54:47;;;;;;;31.80;7.47;;;435.60;742.40;;;;;;5036036;28;20044;-69
2021/03/04 12:57:13;;;;;;;26.42;6.38;;;435.60;716.80;;;;;;5047174;28;20107;-69
2021/03/04 12:59:39;;;;;;;17.95;6.82;;;435.60;716.80;;;;;;5056027;28;20029;-69
2021/03/04 13:02:05;;;;;;;17.27;5.68;;;435.80;691.20;;;;;;5055105;28;20036;-73
2021/03/04 13:04:31;;;;;;;10.73;5.15;;;435.80;691.20;;;;;;5055156;28;20075;-69
2021/03/04 13:06:56;;;;;;;8.80;5.50;;;435.80;691.20;;;;;;5055593;28;20096;-73
2021/03/04 13:09:23;;;;;;;10.77;5.45;;;435.90;691.20;;;;;;5055318;28;20466;-69
2021/03/04 13:11:48;;;;;;;11.40;5.53;;;436.00;665.60;;;;;;5055344;28;20032;-69
2021/03/04 13:14:14;;;;;;;9.50;5.70;;;436.00;640.00;;;;;;5055085;28;20049;-69
2021/03/04 13:16:41;;;;;;;15.20;6.88;;;436.00;665.60;;;;;;5055182;28;20373;-70
2021/03/04 13:19:07;;;;;;;10.05;5.80;;;436.00;691.20;;;;;;5055283;28;20078;-69
2021/03/04 13:21:32;;;;;;;56.67;31.38;;;436.00;716.80;;;;;;5055116;28;20107;-73
2021/03/04 13:23:58;;;;;;;36.42;26.70;;;436.00;665.60;;;;;;5055449;28;20024;-70
2021/03/04 13:26:26;;;;;;;11.10;6.50;;;436.00;691.20;;;;;;5055387;28;20025;-69
2021/03/04 13:28:52;;;;;;;16.27;12.00;;;436.00;640.00;;;;;;5055259;28;20075;-73
2021/03/04 13:31:18;;;;;;;13.55;7.38;;;460.80;793.60;;;;;;5055283;28;20116;-69
2021/03/04 13:33:44;;;;;;;22.30;20.35;;;460.80;742.40;;;;;;5054887;28;20040;-70
2021/03/04 13:36:11;;;;;;;11.82;6.53;;;460.80;665.60;;;;;;5054283;28;20025;-69
2021/03/04 13:38:37;;;;;;;16.23;10.50;;;460.80;716.80;;;;;;5054648;28;20025;-69
2021/03/04 13:41:04;;;;;;;20.08;11.10;;;460.90;716.80;;;;;;5054660;28;20021;-70
2021/03/04 13:43:30;;;;;;;9.15;6.15;;;460.90;716.80;;;;;;5055035;28;20032;-69
2021/03/04 13:45:56;;;;;;;26.98;22.52;;;460.90;742.40;;;;;;5055058;28;20025;-73
2021/03/04 13:48:22;;;;;;;8.27;5.45;;;461.00;691.20;;;;;;5053288;28;20424;-73
2021/03/04 13:50:49;;;;;;;26.25;18.60;;;460.90;691.20;;;;;;5054573;28;20078;-70
2021/03/04 13:53:15;;;;;;;39.70;28.63;;;460.90;691.20;;;;;;5054700;28;20384;-69
2021/03/04 13:55:41;;;;;;;15.63;10.50;;;460.90;665.60;;;;;;5054464;28;20029;-72
2021/03/04 13:58:07;;;;;;;14.07;8.13;;;460.90;742.40;;;;;;5054330;28;20028;-74
2021/03/04 14:00:33;;;;;;;17.65;10.15;;;460.90;716.80;;;;;;5054383;28;20544;-68
2021/03/04 14:02:59;;;;;;;17.02;11.27;;;460.90;742.40;;;;;;5054271;28;20078;-69
2021/03/04 14:05:25;;;;;;;20.67;12.43;;;460.80;742.40;;;;;;5054307;28;20104;-69
2021/03/04 14:07:51;;;;;;;28.48;17.45;;;460.80;768.00;;;;;;5054321;28;20032;-69
2021/03/04 14:10:17;;;;;;;16.20;9.80;;;460.80;819.20;;;;;;5054211;28;20025;-69
2021/03/04 14:12:44;;;;;;;20.30;10.52;;;460.80;844.80;;;;;;5054291;28;20051;-69
2021/03/04 14:15:11;;;;;;;14.88;8.30;;;460.80;716.80;;;;;;5054155;28;20025;-69
2021/03/04 14:17:38;;;;;;;12.52;8.93;;;436.00;716.80;;;;;;5051140;28;20079;-70
2021/03/04 14:20:06;;;;;;;12.57;8.55;;;436.00;742.40;;;;;;5053810;28;20052;-69
2021/03/04 14:22:32;;;;;;;33.22;16.02;;;435.90;691.20;;;;;;5041319;28;20033;-69